Terminal Aerodrome Forecast
Issued by NWS

Home | Current Version | Previous Version | Text Only | Print | Product List | Glossary On
Versions: 1 2 3 4 5 6 7 8 9 10 11 12 13 14
000
FTUS46 KSEW 151120
TAFPAE
TAF
KPAE 151120Z 1512/1612 15005KT P6SM SCT025 OVC050
     FM151600 15005KT 5SM -RA BR BKN015 OVC040
     FM152200 30006KT P6SM -SHRA BKN015 BKN040
     FM160600 30008KT P6SM VCSH BKN015
     FM161100 VRB04KT P6SM BKN012=

USA.gov is the U.S. government's official web portal to all federal, state and local government web resources and services.